Time;durP1;ratioP1;P1;durP2;ratioP2;P2;SDS_P1;SDS_P2;PMS_P1;PMS_P2;Temp;Humidity;BMP_temperature;BMP_pressure;BME280_temperature;BME280_humidity;BME280_pressure;Samples;Min_cycle;Max_cycle;Signal;HPM_P1;HPM_P2
2022/12/15 00:39:14;;;;;;;15.40;10.40;;;;;;;;;;5045830;28;20024;-60
2022/12/15 00:41:40;;;;;;;18.70;10.65;;;;;;;;;;5045133;28;20025;-60
2022/12/15 00:44:06;;;;;;;14.77;9.68;;;;;;;;;;5045711;28;20188;-59
2022/12/15 01:22:05;;;;;;;17.08;10.27;;;;;;;;;;5053513;28;20106;-59
2022/12/15 01:24:31;;;;;;;15.60;10.15;;;;;;;;;;5053386;28;20079;-59
2022/12/15 01:26:56;;;;;;;17.17;9.50;;;;;;;;;;5053428;28;20033;-59
2022/12/15 01:29:22;;;;;;;13.00;8.65;;;;;;;;;;5053209;28;20033;-59
2022/12/15 01:31:48;;;;;;;17.85;9.73;;;;;;;;;;5053309;28;20032;-59
2022/12/15 01:34:13;;;;;;;13.52;9.50;;;;;;;;;;5053162;28;20024;-59
2022/12/15 01:36:39;;;;;;;17.52;9.73;;;;;;;;;;5053415;28;20107;-59
2022/12/15 01:39:04;;;;;;;13.48;9.30;;;;;;;;;;5053130;28;20025;-59
2022/12/15 01:41:30;;;;;;;17.80;10.27;;;;;;;;;;5053098;28;20104;-59
2022/12/15 01:44:17;;;;;;;14.50;8.75;;;;;;;;;;5052956;28;20029;-60
2022/12/15 01:46:43;;;;;;;16.50;9.80;;;;;;;;;;5053071;28;20035;-59
2022/12/15 01:49:19;;;;;;;14.45;9.45;;;;;;;;;;5053180;28;20100;-60
2022/12/15 01:51:52;;;;;;;15.00;9.48;;;;;;;;;;5052924;28;20024;-59
2022/12/15 01:54:23;;;;;;;14.75;9.43;;;;;;;;;;5053028;28;20033;-60
2022/12/15 01:56:53;;;;;;;12.40;9.02;;;;;;;;;;5052820;28;20025;-59
2022/12/15 01:59:28;;;;;;;14.85;9.77;;;;;;;;;;5051768;28;20092;-59
2022/12/15 02:01:53;;;;;;;16.08;9.43;;;;;;;;;;5052833;28;20112;-59
2022/12/15 02:04:21;;;;;;;20.15;9.10;;;;;;;;;;5052641;28;20579;-59
2022/12/15 02:06:47;;;;;;;13.93;9.15;;;;;;;;;;5052705;28;20523;-59
2022/12/15 02:09:13;;;;;;;15.02;9.35;;;;;;;;;;5052704;28;20025;-59
2022/12/15 02:11:57;;;;;;;12.45;9.05;;;;;;;;;;5052809;28;20036;-59
2022/12/15 02:15:02;;;;;;;17.05;9.23;;;;;;;;;;5052607;28;20388;-59
2022/12/15 02:17:56;;;;;;;13.10;8.77;;;;;;;;;;5021201;28;20040;-59
2022/12/15 02:20:54;;;;;;;13.65;8.85;;;;;;;;;;5049493;28;20115;-59
2022/12/15 02:23:58;;;;;;;13.35;8.65;;;;;;;;;;5018669;28;20044;-59
2022/12/15 02:26:55;;;;;;;11.93;8.48;;;;;;;;;;4990831;28;20054;-63
2022/12/15 02:29:36;;;;;;;12.57;8.88;;;;;;;;;;5052833;28;20139;-62
2022/12/15 02:32:12;;;;;;;13.52;8.68;;;;;;;;;;5052471;28;20029;-64
2022/12/15 02:34:40;;;;;;;12.30;8.50;;;;;;;;;;5052670;28;20029;-60
2022/12/15 02:37:12;;;;;;;14.07;8.57;;;;;;;;;;5052563;28;20032;-64
2022/12/15 02:39:37;;;;;;;15.13;9.18;;;;;;;;;;5052634;28;20057;-59
2022/12/15 02:42:03;;;;;;;15.18;9.00;;;;;;;;;;5052272;28;20118;-58
2022/12/15 02:44:49;;;;;;;12.70;8.68;;;;;;;;;;5054983;28;20025;-59
2022/12/15 02:47:27;;;;;;;13.80;8.93;;;;;;;;;;5056390;28;20029;-59
2022/12/15 02:50:29;;;;;;;13.73;9.15;;;;;;;;;;5056654;28;20075;-59
2022/12/15 02:53:13;;;;;;;13.05;8.68;;;;;;;;;;5056289;28;20027;-59
2022/12/15 02:55:41;;;;;;;13.05;8.52;;;;;;;;;;5056049;28;20055;-59
2022/12/15 02:58:33;;;;;;;13.60;8.90;;;;;;;;;;5056216;28;20508;-59
2022/12/15 03:01:04;;;;;;;12.57;8.38;;;;;;;;;;5047924;28;20040;-59
2022/12/15 03:03:33;;;;;;;11.00;8.25;;;;;;;;;;5056378;28;20094;-60
2022/12/15 03:06:01;;;;;;;13.10;8.50;;;;;;;;;;5056318;28;20045;-59
2022/12/15 03:08:28;;;;;;;13.25;8.63;;;;;;;;;;5056308;28;20033;-59
2022/12/15 03:10:54;;;;;;;12.85;9.18;;;;;;;;;;5055928;28;20087;-59
2022/12/15 03:13:20;;;;;;;12.43;8.57;;;;;;;;;;5056257;28;20431;-59
2022/12/15 03:15:45;;;;;;;12.18;8.73;;;;;;;;;;5056140;28;20029;-59
2022/12/15 03:18:11;;;;;;;13.98;8.38;;;;;;;;;;5055865;28;20029;-59
2022/12/15 03:20:36;;;;;;;12.73;8.52;;;;;;;;;;5055826;28;20050;-59
2022/12/15 03:23:02;;;;;;;13.25;8.48;;;;;;;;;;5055802;28;20028;-59
2022/12/15 03:25:28;;;;;;;12.38;8.27;;;;;;;;;;5055589;28;20090;-62
2022/12/15 03:27:53;;;;;;;12.57;7.82;;;;;;;;;;5055744;28;20401;-65
2022/12/15 03:30:19;;;;;;;12.73;8.65;;;;;;;;;;5055589;28;20044;-60
2022/12/15 03:32:45;;;;;;;13.60;8.35;;;;;;;;;;5055777;28;20021;-64
2022/12/15 03:35:11;;;;;;;12.60;7.97;;;;;;;;;;5055818;28;20385;-62
2022/12/15 03:37:38;;;;;;;11.77;8.30;;;;;;;;;;5054186;28;20021;-64
2022/12/15 03:40:04;;;;;;;11.13;8.45;;;;;;;;;;5055374;28;20611;-59
2022/12/15 03:45:26;;;;;;;11.15;7.90;;;;;;;;;;5050284;28;20041;-60
2022/12/15 03:47:54;;;;;;;11.73;7.80;;;;;;;;;;5055533;28;20104;-59
2022/12/15 03:50:23;;;;;;;12.85;7.93;;;;;;;;;;5055217;28;20117;-59
2022/12/15 03:53:00;;;;;;;11.73;7.90;;;;;;;;;;5055250;28;20051;-59
2022/12/15 03:55:27;;;;;;;14.25;8.50;;;;;;;;;;5054881;28;20128;-59
2022/12/15 03:57:53;;;;;;;14.02;8.45;;;;;;;;;;5055116;28;20021;-59
2022/12/15 04:00:20;;;;;;;12.38;7.97;;;;;;;;;;5055333;28;20021;-59
2022/12/15 04:02:46;;;;;;;13.25;8.50;;;;;;;;;;5054968;28;20021;-59
2022/12/15 04:05:16;;;;;;;13.15;8.18;;;;;;;;;;5054994;28;20033;-59
2022/12/15 04:07:41;;;;;;;13.38;8.07;;;;;;;;;;5055161;28;20032;-59
2022/12/15 04:10:07;;;;;;;11.50;7.82;;;;;;;;;;5054870;28;20094;-60
2022/12/15 04:12:33;;;;;;;12.85;8.20;;;;;;;;;;5054727;28;20028;-63
2022/12/15 04:14:58;;;;;;;11.27;7.65;;;;;;;;;;5055108;28;20063;-60
2022/12/15 04:17:25;;;;;;;11.68;8.40;;;;;;;;;;5054732;28;20449;-63
2022/12/15 04:20:08;;;;;;;11.32;7.50;;;;;;;;;;5054609;28;20078;-60
2022/12/15 04:22:42;;;;;;;10.55;7.80;;;;;;;;;;5054611;28;20025;-62
2022/12/15 05:33:53;;;;;;;10.05;7.47;;;;;;;;;;5053417;28;20079;-59
2022/12/15 05:36:19;;;;;;;9.98;7.40;;;;;;;;;;5053176;28;20044;-60
2022/12/15 05:38:50;;;;;;;9.93;6.93;;;;;;;;;;5053380;28;20404;-60
2022/12/15 05:41:20;;;;;;;11.32;8.05;;;;;;;;;;5053037;28;20032;-59
2022/12/15 05:43:46;;;;;;;11.53;7.80;;;;;;;;;;5053226;28;20052;-59
2022/12/15 05:46:13;;;;;;;12.15;7.35;;;;;;;;;;5052952;28;20075;-59
2022/12/15 05:48:39;;;;;;;10.65;6.80;;;;;;;;;;5052875;28;20112;-60
2022/12/15 05:51:07;;;;;;;10.10;7.57;;;;;;;;;;5053153;28;20104;-60
2022/12/15 05:53:33;;;;;;;9.45;7.40;;;;;;;;;;5052802;28;20032;-60
2022/12/15 05:56:03;;;;;;;11.70;7.20;;;;;;;;;;5052702;28;20041;-62
2022/12/15 05:58:29;;;;;;;;;;;;;;;;;;5053071;28;20484;-60
2022/12/15 06:01:00;;;;;;;9.50;7.30;;;;;;;;;;5052848;28;19966;-60
2022/12/15 06:03:26;;;;;;;9.60;6.90;;;;;;;;;;5052725;28;20107;-60
2022/12/15 06:05:51;;;;;;;8.88;7.03;;;;;;;;;;5052532;28;20437;-59
2022/12/15 06:08:17;;;;;;;10.23;7.43;;;;;;;;;;5052930;28;20037;-60
2022/12/15 06:10:42;;;;;;;10.25;7.07;;;;;;;;;;5052585;28;20427;-59
2022/12/15 06:13:08;;;;;;;10.02;7.10;;;;;;;;;;5052489;28;20369;-59
2022/12/15 06:15:33;;;;;;;9.85;7.13;;;;;;;;;;5051397;28;20029;-59
2022/12/15 06:17:59;;;;;;;12.35;7.53;;;;;;;;;;5050468;28;20029;-59
2022/12/15 06:20:24;;;;;;;11.25;7.22;;;;;;;;;;5052404;28;20029;-60
2022/12/15 06:22:50;;;;;;;12.23;7.47;;;;;;;;;;5052644;28;20499;-60
2022/12/15 06:25:17;;;;;;;12.23;7.32;;;;;;;;;;5052467;28;20033;-62
2022/12/15 06:27:42;;;;;;;8.48;6.68;;;;;;;;;;5052613;28;20047;-59
2022/12/15 06:30:08;;;;;;;9.88;6.85;;;;;;;;;;5052337;28;20387;-59
2022/12/15 06:32:35;;;;;;;8.40;6.55;;;;;;;;;;5052200;28;20421;-63
2022/12/15 06:35:00;;;;;;;10.05;6.72;;;;;;;;;;5052319;28;20086;-59
2022/12/15 06:37:26;;;;;;;10.93;7.40;;;;;;;;;;5052374;28;20025;-59
2022/12/15 06:39:51;;;;;;;10.25;7.32;;;;;;;;;;5052520;28;20468;-60
2022/12/15 06:42:17;;;;;;;10.13;6.97;;;;;;;;;;5052424;28;20021;-59
2022/12/15 06:44:42;;;;;;;12.05;7.20;;;;;;;;;;5052050;28;20047;-60
2022/12/15 06:47:08;;;;;;;10.43;7.22;;;;;;;;;;5051234;28;20029;-60
2022/12/15 06:49:33;;;;;;;9.95;6.80;;;;;;;;;;5052124;28;20376;-60
2022/12/15 06:51:59;;;;;;;9.30;7.07;;;;;;;;;;5052226;28;20033;-59
2022/12/15 06:54:24;;;;;;;12.52;6.70;;;;;;;;;;5051821;28;20033;-60
2022/12/15 06:56:50;;;;;;;9.90;6.80;;;;;;;;;;5051921;28;20042;-59
2022/12/15 06:59:16;;;;;;;10.45;7.22;;;;;;;;;;5052305;28;20119;-59
2022/12/15 07:01:41;;;;;;;9.00;6.70;;;;;;;;;;5051973;28;20017;-62
2022/12/15 07:04:07;;;;;;;9.25;6.75;;;;;;;;;;5051838;28;20036;-59
2022/12/15 07:06:37;;;;;;;10.18;6.78;;;;;;;;;;5051940;28;20027;-59
2022/12/15 07:09:06;;;;;;;10.32;7.25;;;;;;;;;;5052228;28;20040;-59
2022/12/15 07:11:31;;;;;;;8.10;6.60;;;;;;;;;;5052176;28;20033;-59
2022/12/15 07:13:57;;;;;;;8.75;7.13;;;;;;;;;;5052178;28;20029;-61
2022/12/15 07:16:23;;;;;;;9.43;6.32;;;;;;;;;;5050616;28;20029;-60
2022/12/15 07:18:49;;;;;;;10.57;7.03;;;;;;;;;;5051856;28;20029;-59
2022/12/15 07:21:14;;;;;;;10.73;7.40;;;;;;;;;;5051704;28;20048;-59
2022/12/15 07:23:40;;;;;;;9.98;7.20;;;;;;;;;;5051970;28;20027;-60
2022/12/15 07:26:08;;;;;;;9.40;7.07;;;;;;;;;;5050734;28;20033;-60
2022/12/15 07:28:35;;;;;;;10.23;6.40;;;;;;;;;;5051955;28;20032;-59
2022/12/15 07:31:05;;;;;;;9.00;6.88;;;;;;;;;;5053536;28;20084;-59
2022/12/15 07:33:32;;;;;;;9.40;7.05;;;;;;;;;;5055851;28;20021;-59
2022/12/15 07:35:57;;;;;;;9.60;6.95;;;;;;;;;;5055637;28;20031;-59
2022/12/15 07:38:23;;;;;;;8.45;6.63;;;;;;;;;;5055438;28;20020;-59
2022/12/15 07:40:48;;;;;;;7.90;6.35;;;;;;;;;;5045132;28;20022;-60
2022/12/15 07:43:15;;;;;;;10.02;7.38;;;;;;;;;;5043775;28;20037;-60
2022/12/15 07:45:40;;;;;;;8.73;6.75;;;;;;;;;;5045655;28;20021;-60
2022/12/15 07:48:06;;;;;;;9.35;6.47;;;;;;;;;;5044701;28;20088;-58
2022/12/15 07:50:31;;;;;;;9.77;6.65;;;;;;;;;;5048836;28;20111;-60
2022/12/15 07:52:57;;;;;;;8.68;6.38;;;;;;;;;;5044426;28;20080;-64
2022/12/15 07:55:24;;;;;;;9.82;6.63;;;;;;;;;;5042033;28;20053;-59
2022/12/15 07:57:50;;;;;;;10.75;6.90;;;;;;;;;;5044603;28;20507;-65
2022/12/15 08:00:16;;;;;;;8.90;6.65;;;;;;;;;;5045269;28;20022;-61
2022/12/15 08:02:42;;;;;;;13.52;7.70;;;;;;;;;;5043677;28;20034;-65
2022/12/15 08:05:09;;;;;;;9.25;6.72;;;;;;;;;;5044690;28;20368;-64
2022/12/15 08:07:35;;;;;;;9.10;6.70;;;;;;;;;;5045141;28;20108;-58
2022/12/15 08:10:00;;;;;;;9.13;6.45;;;;;;;;;;5043193;28;20436;-65
2022/12/15 08:12:27;;;;;;;11.68;7.32;;;;;;;;;;5041299;28;20033;-59
2022/12/15 08:14:52;;;;;;;10.23;6.93;;;;;;;;;;5034734;28;20067;-59
2022/12/15 08:17:18;;;;;;;8.18;6.53;;;;;;;;;;5034956;28;20112;-60
2022/12/15 08:19:44;;;;;;;10.38;7.20;;;;;;;;;;5035866;28;20029;-59
2022/12/15 08:22:10;;;;;;;8.88;6.68;;;;;;;;;;5048023;28;20155;-59
2022/12/15 08:24:36;;;;;;;10.55;7.28;;;;;;;;;;5045963;28;20055;-65
2022/12/15 08:27:03;;;;;;;9.10;6.95;;;;;;;;;;5043459;28;20072;-65
2022/12/15 08:29:28;;;;;;;11.10;6.85;;;;;;;;;;5041847;28;20022;-65
2022/12/15 08:31:54;;;;;;;8.88;7.07;;;;;;;;;;5042617;28;20025;-60
2022/12/15 08:34:20;;;;;;;9.02;6.68;;;;;;;;;;5036384;28;20025;-61
2022/12/15 08:36:45;;;;;;;9.55;6.88;;;;;;;;;;5031411;28;20036;-59
2022/12/15 08:39:11;;;;;;;10.23;6.90;;;;;;;;;;5033081;28;20025;-60
2022/12/15 08:41:36;;;;;;;10.98;7.60;;;;;;;;;;5044893;28;20036;-60
2022/12/15 08:44:02;;;;;;;9.32;7.20;;;;;;;;;;5054356;28;20041;-60
2022/12/15 08:46:32;;;;;;;10.95;7.05;;;;;;;;;;5054419;28;20099;-60
2022/12/15 08:48:58;;;;;;;10.30;7.22;;;;;;;;;;5053999;28;20412;-60
2022/12/15 08:51:26;;;;;;;10.27;7.55;;;;;;;;;;5050952;28;20033;-60
2022/12/15 08:53:53;;;;;;;10.10;7.15;;;;;;;;;;5050318;28;20585;-62
2022/12/15 08:56:21;;;;;;;11.57;6.88;;;;;;;;;;5047526;28;20131;-60
2022/12/15 08:58:47;;;;;;;10.05;7.32;;;;;;;;;;5052366;28;20033;-61
2022/12/15 09:01:16;;;;;;;9.30;6.55;;;;;;;;;;5052269;28;20487;-60
2022/12/15 09:03:42;;;;;;;10.98;7.18;;;;;;;;;;5052333;28;20386;-63
2022/12/15 09:06:13;;;;;;;9.52;6.95;;;;;;;;;;5052152;28;20037;-60
2022/12/15 09:08:38;;;;;;;10.07;6.88;;;;;;;;;;5043277;28;20033;-64
2022/12/15 09:11:04;;;;;;;8.85;6.80;;;;;;;;;;5052053;28;20399;-60
2022/12/15 09:13:30;;;;;;;11.23;6.82;;;;;;;;;;5052265;28;20024;-61
2022/12/15 09:16:04;;;;;;;9.23;7.13;;;;;;;;;;5052231;28;20520;-61
2022/12/15 09:18:30;;;;;;;10.15;7.40;;;;;;;;;;5050441;28;20393;-61
2022/12/15 09:21:04;;;;;;;10.95;7.15;;;;;;;;;;5050216;28;20029;-63
2022/12/15 09:23:30;;;;;;;10.88;7.18;;;;;;;;;;5051713;28;20437;-61
2022/12/15 09:26:07;;;;;;;10.88;6.80;;;;;;;;;;5051527;28;20029;-61
2022/12/15 09:28:33;;;;;;;8.90;6.80;;;;;;;;;;5048470;28;20112;-61
2022/12/15 09:31:08;;;;;;;8.45;6.63;;;;;;;;;;5034316;28;20443;-64
2022/12/15 09:33:34;;;;;;;10.35;7.13;;;;;;;;;;5032040;28;20075;-62
2022/12/15 09:36:00;;;;;;;10.18;6.93;;;;;;;;;;5031671;28;20104;-60
2022/12/15 09:38:25;;;;;;;9.55;6.60;;;;;;;;;;5030608;28;20116;-61
2022/12/15 09:40:51;;;;;;;11.93;7.47;;;;;;;;;;5031690;28;20438;-61
2022/12/15 09:43:23;;;;;;;8.93;7.15;;;;;;;;;;5031774;28;20029;-60
2022/12/15 09:46:00;;;;;;;10.02;7.13;;;;;;;;;;5031586;28;20033;-61
2022/12/15 09:48:33;;;;;;;11.20;7.18;;;;;;;;;;5031728;28;20025;-60
2022/12/15 09:51:03;;;;;;;10.73;6.93;;;;;;;;;;5031653;28;20025;-64
2022/12/15 09:53:28;;;;;;;10.23;6.82;;;;;;;;;;5033679;28;20029;-60
2022/12/15 09:56:02;;;;;;;9.50;7.05;;;;;;;;;;5038875;28;20048;-60
2022/12/15 09:58:39;;;;;;;10.27;7.32;;;;;;;;;;5032806;28;20026;-60
2022/12/15 10:01:30;;;;;;;10.57;7.07;;;;;;;;;;5031191;28;20028;-60
2022/12/15 10:04:06;;;;;;;10.10;7.00;;;;;;;;;;5035100;28;20029;-60
2022/12/15 10:06:53;;;;;;;8.90;6.43;;;;;;;;;;5050928;28;20534;-60
2022/12/15 10:09:29;;;;;;;9.13;6.95;;;;;;;;;;5051165;28;20032;-59
2022/12/15 10:12:02;;;;;;;10.60;7.55;;;;;;;;;;5050377;28;20412;-61
2022/12/15 10:14:50;;;;;;;9.45;7.07;;;;;;;;;;5048488;28;20259;-61
2022/12/15 10:17:31;;;;;;;8.70;6.70;;;;;;;;;;5048455;28;20543;-61
2022/12/15 10:20:13;;;;;;;9.63;6.90;;;;;;;;;;5050494;28;20546;-61
2022/12/15 10:22:39;;;;;;;10.45;7.40;;;;;;;;;;5050561;28;20433;-61
2022/12/15 10:25:24;;;;;;;10.70;7.03;;;;;;;;;;5050407;28;20028;-61
2022/12/15 10:28:17;;;;;;;10.27;7.38;;;;;;;;;;5050699;28;20032;-60
2022/12/15 10:30:55;;;;;;;10.48;7.32;;;;;;;;;;5050459;28;20029;-61
2022/12/15 10:33:23;;;;;;;9.70;7.07;;;;;;;;;;5050718;28;20021;-62
2022/12/15 10:35:52;;;;;;;10.77;7.47;;;;;;;;;;5050842;28;20039;-63
2022/12/15 10:38:39;;;;;;;10.82;7.47;;;;;;;;;;5050662;28;20028;-60
2022/12/15 10:41:10;;;;;;;10.07;6.78;;;;;;;;;;5050927;28;20060;-61
2022/12/15 10:43:41;;;;;;;11.02;7.53;;;;;;;;;;5050563;28;20025;-62
2022/12/15 10:46:18;;;;;;;11.05;7.70;;;;;;;;;;5050787;28;20434;-63
2022/12/15 10:48:54;;;;;;;9.43;6.85;;;;;;;;;;5065609;28;20025;-61
2022/12/15 10:51:42;;;;;;;10.02;7.15;;;;;;;;;;5050845;28;20045;-62
2022/12/15 10:54:11;;;;;;;9.68;6.75;;;;;;;;;;5049970;28;20032;-61
2022/12/15 10:56:55;;;;;;;10.30;7.03;;;;;;;;;;5050376;28;20094;-61
2022/12/15 10:59:27;;;;;;;9.88;7.22;;;;;;;;;;5050361;28;20033;-62
2022/12/15 11:01:53;;;;;;;10.35;7.43;;;;;;;;;;5050591;28;20029;-62
2022/12/15 11:04:30;;;;;;;9.50;6.68;;;;;;;;;;5050805;28;20044;-63
2022/12/15 11:06:58;;;;;;;10.85;7.50;;;;;;;;;;5054475;28;20043;-60
2022/12/15 11:09:27;;;;;;;12.95;7.57;;;;;;;;;;5054570;28;20021;-60
2022/12/15 11:14:47;;;;;;;9.98;7.20;;;;;;;;;;5054830;28;20116;-62
2022/12/15 11:17:18;;;;;;;10.98;7.10;;;;;;;;;;5054222;28;20025;-61
2022/12/15 11:20:01;;;;;;;10.73;7.55;;;;;;;;;;5054262;28;20021;-60
2022/12/15 11:22:53;;;;;;;10.93;7.30;;;;;;;;;;5054146;28;20434;-60
2022/12/15 11:25:36;;;;;;;11.07;7.50;;;;;;;;;;5053637;28;20040;-59
2022/12/15 11:28:05;;;;;;;12.07;7.60;;;;;;;;;;5054004;28;20524;-60
2022/12/15 11:30:40;;;;;;;11.88;7.47;;;;;;;;;;5054305;28;20507;-61
2022/12/15 11:33:09;;;;;;;11.10;7.60;;;;;;;;;;5052535;28;20048;-60
2022/12/15 11:35:59;;;;;;;9.57;7.40;;;;;;;;;;5052762;28;20033;-60
2022/12/15 11:38:31;;;;;;;;;;;;;;;;;;5054344;28;20063;-60
2022/12/15 11:41:05;;;;;;;10.05;7.00;;;;;;;;;;5054041;28;19960;-60
2022/12/15 11:44:11;;;;;;;18.83;7.15;;;;;;;;;;5053719;28;20033;-59
2022/12/15 11:47:12;;;;;;;11.13;7.00;;;;;;;;;;4993594;28;20085;-61
2022/12/15 11:50:11;;;;;;;9.00;6.88;;;;;;;;;;4970392;28;20104;-59
2022/12/15 11:52:39;;;;;;;10.00;7.10;;;;;;;;;;5049221;28;20111;-60
2022/12/15 11:55:56;;;;;;;9.82;7.00;;;;;;;;;;5053280;28;20075;-64
2022/12/15 11:58:49;;;;;;;12.00;7.60;;;;;;;;;;5008508;28;20157;-65
2022/12/15 12:01:27;;;;;;;9.70;7.03;;;;;;;;;;5053355;28;20029;-61
2022/12/15 12:04:12;;;;;;;10.52;7.65;;;;;;;;;;5052063;28;20108;-64
2022/12/15 12:06:44;;;;;;;10.82;7.18;;;;;;;;;;5052845;28;20037;-60
2022/12/15 12:09:16;;;;;;;9.48;6.85;;;;;;;;;;5051855;28;20025;-65
2022/12/15 12:12:03;;;;;;;10.52;7.50;;;;;;;;;;5053232;28;20021;-60
2022/12/15 12:14:42;;;;;;;11.13;7.03;;;;;;;;;;5052982;28;20036;-60
2022/12/15 12:17:26;;;;;;;12.43;7.45;;;;;;;;;;5050494;28;20028;-60
2022/12/15 12:19:57;;;;;;;11.40;7.72;;;;;;;;;;5053442;28;20021;-63
2022/12/15 12:22:50;;;;;;;15.13;7.72;;;;;;;;;;5052891;28;20040;-61
2022/12/15 12:25:19;;;;;;;9.50;6.97;;;;;;;;;;5047062;28;20124;-61
2022/12/15 12:27:54;;;;;;;9.88;6.95;;;;;;;;;;5053124;28;20025;-64
2022/12/15 12:30:24;;;;;;;10.70;7.50;;;;;;;;;;5052925;28;20060;-61
2022/12/15 12:33:18;;;;;;;10.20;7.97;;;;;;;;;;5052606;28;20063;-60
2022/12/15 12:35:53;;;;;;;10.38;7.05;;;;;;;;;;5052649;28;20040;-60
2022/12/15 12:38:28;;;;;;;10.45;7.00;;;;;;;;;;5052786;28;20025;-63
2022/12/15 12:41:02;;;;;;;11.27;7.05;;;;;;;;;;5052762;28;20029;-64
2022/12/15 12:43:37;;;;;;;12.02;7.53;;;;;;;;;;5052522;28;20595;-61
2022/12/15 12:46:24;;;;;;;10.20;7.28;;;;;;;;;;5052489;28;20036;-60
2022/12/15 12:48:52;;;;;;;9.80;6.82;;;;;;;;;;5050772;28;20468;-60
2022/12/15 12:51:26;;;;;;;10.35;6.88;;;;;;;;;;5047053;28;20055;-61
2022/12/15 12:53:52;;;;;;;12.52;7.20;;;;;;;;;;5032818;28;20030;-61
2022/12/15 12:56:35;;;;;;;11.20;7.25;;;;;;;;;;5031914;28;20128;-61
2022/12/15 12:59:07;;;;;;;11.60;7.20;;;;;;;;;;5032429;28;20110;-60
2022/12/15 13:01:36;;;;;;;11.40;7.68;;;;;;;;;;5032330;28;20080;-60
2022/12/15 13:04:10;;;;;;;11.20;7.45;;;;;;;;;;5032120;28;20021;-60
2022/12/15 13:06:39;;;;;;;10.57;7.38;;;;;;;;;;5032409;28;20131;-60
2022/12/15 13:09:17;;;;;;;9.35;7.18;;;;;;;;;;5032063;28;20029;-60
2022/12/15 13:11:52;;;;;;;11.68;7.35;;;;;;;;;;5032374;28;20421;-60
2022/12/15 13:14:33;;;;;;;9.63;7.10;;;;;;;;;;5032148;28;20055;-60
2022/12/15 13:17:10;;;;;;;10.20;7.68;;;;;;;;;;5032148;28;20029;-60
2022/12/15 13:19:57;;;;;;;10.05;7.45;;;;;;;;;;5032192;28;20116;-59
2022/12/15 13:22:33;;;;;;;9.93;7.25;;;;;;;;;;5032005;28;20037;-60
2022/12/15 13:24:59;;;;;;;11.05;7.28;;;;;;;;;;5031719;28;20040;-59
2022/12/15 13:27:35;;;;;;;12.68;8.02;;;;;;;;;;5031332;28;20053;-60
2022/12/15 13:30:14;;;;;;;9.35;7.38;;;;;;;;;;5031810;28;20544;-60
2022/12/15 13:32:46;;;;;;;10.52;7.47;;;;;;;;;;5031645;28;20063;-63
2022/12/15 13:35:11;;;;;;;9.80;7.47;;;;;;;;;;5047074;28;20045;-60
2022/12/15 13:37:52;;;;;;;10.20;7.57;;;;;;;;;;5040994;28;20063;-60
2022/12/15 13:40:32;;;;;;;8.63;6.70;;;;;;;;;;5032011;28;20033;-60
2022/12/15 13:43:30;;;;;;;10.75;7.30;;;;;;;;;;5031518;28;20025;-60
2022/12/15 13:46:00;;;;;;;13.18;8.20;;;;;;;;;;5031324;28;20045;-61
2022/12/15 13:48:31;;;;;;;10.75;7.30;;;;;;;;;;5031723;28;20088;-61
2022/12/15 13:51:22;;;;;;;10.38;7.00;;;;;;;;;;5031809;28;20397;-60
2022/12/15 13:53:56;;;;;;;10.77;7.57;;;;;;;;;;5031183;28;20021;-60
2022/12/15 13:56:45;;;;;;;10.60;7.43;;;;;;;;;;5037739;28;20374;-60
2022/12/15 13:59:26;;;;;;;13.30;7.25;;;;;;;;;;5049726;28;20029;-60
2022/12/15 14:01:52;;;;;;;16.33;9.18;;;;;;;;;;5051461;28;20416;-61
2022/12/15 14:04:19;;;;;;;11.13;7.68;;;;;;;;;;5051008;28;20035;-60
2022/12/15 14:06:52;;;;;;;;;;;;;;;;;;5051416;28;20076;-62
2022/12/15 14:09:33;;;;;;;12.02;7.65;;;;;;;;;;5050938;28;20371;-62
2022/12/15 14:12:00;;;;;;;;;;;;;;;;;;5051519;28;20091;-59
2022/12/15 14:14:33;;;;;;;13.35;8.00;;;;;;;;;;5050987;28;20007;-60
2022/12/15 14:17:07;;;;;;;9.88;7.10;;;;;;;;;;5050912;28;20017;-59
2022/12/15 14:19:41;;;;;;;11.25;7.40;;;;;;;;;;5050934;28;20519;-60
2022/12/15 14:22:28;;;;;;;10.52;6.80;;;;;;;;;;5050861;28;20033;-60
2022/12/15 14:25:12;;;;;;;13.18;7.75;;;;;;;;;;5051028;28;20037;-60
2022/12/15 14:27:37;;;;;;;11.82;7.25;;;;;;;;;;5049500;28;20025;-59
2022/12/15 14:30:12;;;;;;;12.00;7.50;;;;;;;;;;5050687;28;20056;-64
2022/12/15 14:32:39;;;;;;;12.52;7.95;;;;;;;;;;5050889;28;20389;-60
2022/12/15 14:35:08;;;;;;;12.23;7.38;;;;;;;;;;5050751;28;20029;-60
2022/12/15 14:37:33;;;;;;;9.90;7.40;;;;;;;;;;5050687;28;20098;-61
2022/12/15 14:39:59;;;;;;;11.00;7.32;;;;;;;;;;5048673;28;20029;-62
2022/12/15 14:42:28;;;;;;;13.10;7.60;;;;;;;;;;5050852;28;20140;-60
2022/12/15 14:44:54;;;;;;;14.68;7.40;;;;;;;;;;5050480;28;20086;-60
2022/12/15 14:47:26;;;;;;;12.88;7.57;;;;;;;;;;5050759;28;20031;-61
2022/12/15 14:49:55;;;;;;;10.88;7.72;;;;;;;;;;5050655;28;20067;-60
2022/12/15 14:52:42;;;;;;;12.18;7.30;;;;;;;;;;5050673;28;20029;-59
2022/12/15 14:55:20;;;;;;;9.85;7.60;;;;;;;;;;5050475;28;20047;-60
2022/12/15 14:57:46;;;;;;;12.88;7.63;;;;;;;;;;5050430;28;20052;-59
2022/12/15 15:00:27;;;;;;;11.70;7.10;;;;;;;;;;5044667;28;20017;-64
2022/12/15 15:03:20;;;;;;;14.02;7.55;;;;;;;;;;5050139;28;20037;-59
2022/12/15 15:06:09;;;;;;;15.23;7.93;;;;;;;;;;5035831;28;20064;-60
2022/12/15 15:08:49;;;;;;;11.43;7.25;;;;;;;;;;5036029;28;20041;-59
2022/12/15 15:11:28;;;;;;;14.90;7.45;;;;;;;;;;5049582;28;20029;-60
2022/12/15 15:14:06;;;;;;;13.35;7.95;;;;;;;;;;5050599;28;20033;-60
2022/12/15 15:16:32;;;;;;;12.45;7.00;;;;;;;;;;5050396;28;20039;-60
2022/12/15 15:19:01;;;;;;;15.07;7.60;;;;;;;;;;5050537;28;20451;-60
2022/12/15 15:21:29;;;;;;;18.35;7.85;;;;;;;;;;5047641;28;20029;-63
2022/12/15 15:24:02;;;;;;;18.73;8.80;;;;;;;;;;5050570;28;20025;-60
2022/12/15 15:26:29;;;;;;;22.85;9.07;;;;;;;;;;5048053;28;20120;-61
2022/12/15 15:28:55;;;;;;;33.22;9.55;;;;;;;;;;5032911;28;20037;-60
2022/12/15 15:31:26;;;;;;;36.45;10.43;;;;;;;;;;5030406;28;20029;-60
2022/12/15 15:33:52;;;;;;;;;;;;;;;;;;5031141;28;20389;-60
2022/12/15 15:36:17;;;;;;;34.25;11.05;;;;;;;;;;5030263;28;19917;-60
2022/12/15 15:38:46;;;;;;;47.58;10.75;;;;;;;;;;5030470;28;20075;-61
2022/12/15 15:41:17;;;;;;;34.95;10.95;;;;;;;;;;5030110;28;20531;-61
2022/12/15 15:43:43;;;;;;;28.30;10.40;;;;;;;;;;5030189;28;20507;-60
2022/12/15 15:46:16;;;;;;;37.63;10.80;;;;;;;;;;5030161;28;20041;-62
2022/12/15 15:48:46;;;;;;;33.50;10.60;;;;;;;;;;5030357;28;20029;-60
2022/12/15 15:51:12;;;;;;;47.10;12.38;;;;;;;;;;5032480;28;20035;-60
2022/12/15 15:53:38;;;;;;;33.47;10.40;;;;;;;;;;5032274;28;20041;-61
2022/12/15 15:56:08;;;;;;;43.90;11.43;;;;;;;;;;5033411;28;20041;-60
2022/12/15 15:58:34;;;;;;;38.47;11.40;;;;;;;;;;5033346;28;20041;-63
2022/12/15 16:01:00;;;;;;;38.65;10.88;;;;;;;;;;5033641;28;20025;-61
2022/12/15 16:03:25;;;;;;;41.47;11.55;;;;;;;;;;5033306;28;20041;-59
2022/12/15 16:05:52;;;;;;;32.88;9.90;;;;;;;;;;5033483;28;20030;-61
2022/12/15 16:08:22;;;;;;;48.20;12.43;;;;;;;;;;5033284;28;20485;-60
2022/12/15 16:10:48;;;;;;;28.67;11.30;;;;;;;;;;5033387;28;20108;-60
2022/12/15 16:13:16;;;;;;;39.65;11.60;;;;;;;;;;5033224;28;20038;-60
2022/12/15 16:15:42;;;;;;;49.28;11.73;;;;;;;;;;5031856;28;20033;-60
2022/12/15 16:18:08;;;;;;;37.50;10.45;;;;;;;;;;5031903;28;20034;-63
2022/12/15 16:20:36;;;;;;;34.45;11.55;;;;;;;;;;5033441;28;20091;-60
2022/12/15 16:23:09;;;;;;;44.72;12.02;;;;;;;;;;5033172;28;20022;-60
2022/12/15 16:25:58;;;;;;;34.55;11.55;;;;;;;;;;5033004;28;20643;-65
2022/12/15 16:28:27;;;;;;;42.33;10.82;;;;;;;;;;5033151;28;20108;-64
2022/12/15 16:30:53;;;;;;;43.05;11.60;;;;;;;;;;5033072;28;20079;-64
2022/12/15 16:33:18;;;;;;;32.15;10.90;;;;;;;;;;5033017;28;20432;-65
2022/12/15 16:35:47;;;;;;;36.95;10.80;;;;;;;;;;5033102;28;20068;-64
2022/12/15 16:38:41;;;;;;;40.10;11.60;;;;;;;;;;5033090;28;20432;-64
2022/12/15 16:41:13;;;;;;;40.80;10.70;;;;;;;;;;5030553;28;20397;-64
2022/12/15 16:43:39;;;;;;;35.85;11.90;;;;;;;;;;5032835;28;20029;-62
2022/12/15 16:46:05;;;;;;;45.70;11.55;;;;;;;;;;5032813;28;20112;-64
2022/12/15 16:48:30;;;;;;;43.15;12.85;;;;;;;;;;5032518;28;20025;-64
2022/12/15 16:50:58;;;;;;;40.25;10.88;;;;;;;;;;5032553;28;20029;-64
2022/12/15 16:53:36;;;;;;;30.13;11.10;;;;;;;;;;5035438;28;21060;-62
2022/12/15 16:56:05;;;;;;;36.83;12.15;;;;;;;;;;5044602;28;20049;-60
2022/12/15 16:58:32;;;;;;;35.72;10.55;;;;;;;;;;5052498;28;20025;-61
2022/12/15 17:00:58;;;;;;;42.00;11.30;;;;;;;;;;5052398;28;20043;-59
2022/12/15 17:03:26;;;;;;;41.50;10.85;;;;;;;;;;5051931;28;20036;-59
2022/12/15 17:05:55;;;;;;;36.78;10.63;;;;;;;;;;5052416;28;20036;-62
2022/12/15 17:08:42;;;;;;;31.50;11.68;;;;;;;;;;5052576;28;20061;-60
2022/12/15 17:11:17;;;;;;;36.92;11.13;;;;;;;;;;5052100;28;20029;-64
2022/12/15 17:13:46;;;;;;;38.15;11.90;;;;;;;;;;5052326;28;20463;-64
2022/12/15 17:16:13;;;;;;;40.78;12.48;;;;;;;;;;5052335;28;20025;-64
2022/12/15 17:18:39;;;;;;;35.85;10.98;;;;;;;;;;5051924;28;20117;-65
2022/12/15 17:21:13;;;;;;;39.97;10.90;;;;;;;;;;5051918;28;20025;-62
2022/12/15 17:23:40;;;;;;;36.90;10.77;;;;;;;;;;5052226;28;20373;-64
2022/12/15 17:26:06;;;;;;;26.98;10.23;;;;;;;;;;5051722;28;20025;-63
2022/12/15 17:28:37;;;;;;;35.10;10.27;;;;;;;;;;5051940;28;20087;-64